createdAt,value
2023-03-19T00:02:32.627Z,5.80
2023-03-19T00:05:04.770Z,4.90
2023-03-19T00:07:36.578Z,5.40
2023-03-19T00:10:09.531Z,6.00
2023-03-19T00:12:41.570Z,5.90
2023-03-19T00:15:15.490Z,5.60
2023-03-19T00:17:47.799Z,5.30
2023-03-19T00:20:20.439Z,5.60
2023-03-19T00:22:52.335Z,5.00
2023-03-19T00:25:24.526Z,5.60
2023-03-19T00:27:56.736Z,5.10
2023-03-19T00:30:29.263Z,5.40
2023-03-19T00:33:01.376Z,5.40
2023-03-19T00:35:34.088Z,5.70
2023-03-19T00:38:06.151Z,4.90
2023-03-19T00:40:38.344Z,6.00
2023-03-19T00:43:10.254Z,5.80
2023-03-19T00:45:42.242Z,5.90
2023-03-19T00:48:14.204Z,5.60
2023-03-19T00:50:46.105Z,5.00
2023-03-19T00:53:18.265Z,6.60
2023-03-19T00:55:50.604Z,5.20
2023-03-19T00:58:22.747Z,5.20
2023-03-19T01:00:56.386Z,5.10
2023-03-19T01:03:28.661Z,5.60
2023-03-19T01:06:01.027Z,5.60
2023-03-19T01:08:33.177Z,6.00
2023-03-19T01:11:10.786Z,6.10
2023-03-19T01:13:43.264Z,5.40
2023-03-19T01:16:15.421Z,5.50
2023-03-19T01:18:47.386Z,5.70
2023-03-19T01:21:19.441Z,5.80
2023-03-19T01:23:53.550Z,5.40
2023-03-19T01:26:27.404Z,5.50
2023-03-19T01:29:03.839Z,5.10
2023-03-19T01:31:35.866Z,5.90
2023-03-19T01:34:27.930Z,6.00
2023-03-19T01:37:06.132Z,5.00
2023-03-19T01:39:38.868Z,6.50
2023-03-19T01:42:14.870Z,5.10
2023-03-19T01:45:36.065Z,5.40
2023-03-19T01:48:41.166Z,6.30
2023-03-19T01:51:19.946Z,5.50
2023-03-19T01:54:04.727Z,5.70
2023-03-19T01:56:42.739Z,5.80
2023-03-19T01:59:51.625Z,5.10
2023-03-19T02:02:42.496Z,5.20
2023-03-19T02:05:25.851Z,5.50
2023-03-19T02:08:01.148Z,5.00
2023-03-19T02:10:33.673Z,5.00
2023-03-19T02:13:05.760Z,5.20
2023-03-19T02:15:38.110Z,4.90
2023-03-19T02:18:10.388Z,5.00
2023-03-19T02:20:48.218Z,4.20
2023-03-19T02:23:27.128Z,5.00
2023-03-19T02:26:09.750Z,5.20
2023-03-19T02:28:44.859Z,4.70
2023-03-19T02:31:21.872Z,4.70
2023-03-19T02:34:01.918Z,4.80
2023-03-19T02:36:37.824Z,4.40
2023-03-19T02:39:14.724Z,5.10
2023-03-19T02:41:47.093Z,4.40
2023-03-19T02:44:20.160Z,4.10
2023-03-19T02:49:24.825Z,4.20
2023-03-19T02:51:56.760Z,4.70
2023-03-19T02:54:28.747Z,5.00
2023-03-19T02:57:01.077Z,5.10
2023-03-19T02:59:33.004Z,5.20
2023-03-19T03:02:05.188Z,5.10
2023-03-19T03:04:38.246Z,5.20
2023-03-19T03:07:10.323Z,4.90
2023-03-19T03:09:42.211Z,4.60
2023-03-19T03:12:15.574Z,4.40
2023-03-19T03:14:47.655Z,4.90
2023-03-19T03:17:19.511Z,5.30
2023-03-19T03:19:51.665Z,5.00
2023-03-19T03:22:24.438Z,5.10
2023-03-19T03:24:56.269Z,5.00
2023-03-19T03:27:28.220Z,4.80
2023-03-19T03:30:00.096Z,5.00
2023-03-19T03:32:32.074Z,4.70
2023-03-19T03:35:05.262Z,4.40
2023-03-19T03:37:38.158Z,4.60
2023-03-19T03:40:14.363Z,4.10
2023-03-19T03:42:46.614Z,4.70
2023-03-19T03:45:19.145Z,4.80
2023-03-19T03:47:51.178Z,5.00
2023-03-19T03:50:23.052Z,4.80
2023-03-19T03:52:56.418Z,4.20
2023-03-19T03:55:28.747Z,4.90
2023-03-19T03:58:01.472Z,4.70
2023-03-19T04:00:33.642Z,4.50
2023-03-19T04:03:05.965Z,4.50
2023-03-19T04:05:38.802Z,5.00
2023-03-19T04:08:12.185Z,4.60
2023-03-19T04:10:45.589Z,5.20
2023-03-19T04:13:17.529Z,5.40
2023-03-19T04:15:49.443Z,5.40
2023-03-19T04:18:21.594Z,5.60
2023-03-19T04:20:54.499Z,4.50
2023-03-19T04:23:26.614Z,5.00
2023-03-19T04:26:02.238Z,5.40
2023-03-19T04:28:35.213Z,5.70
2023-03-19T04:31:09.344Z,6.10
2023-03-19T04:33:43.514Z,5.50
2023-03-19T04:36:15.635Z,5.50
2023-03-19T04:38:47.935Z,3.90
2023-03-19T04:41:20.525Z,5.00
2023-03-19T04:44:15.417Z,4.60
2023-03-19T04:46:47.569Z,4.10
2023-03-19T04:49:20.904Z,4.60
2023-03-19T04:51:53.098Z,4.40
2023-03-19T04:54:25.269Z,4.10
2023-03-19T04:56:58.135Z,4.30
2023-03-19T04:59:32.006Z,4.00
2023-03-19T05:02:04.201Z,3.90
2023-03-19T05:04:38.084Z,4.50
2023-03-19T05:07:13.671Z,4.20
2023-03-19T05:09:47.776Z,4.10
2023-03-19T05:12:19.935Z,5.00
2023-03-19T05:14:54.662Z,4.00
2023-03-19T05:17:32.668Z,4.40
2023-03-19T05:20:30.590Z,4.00
2023-03-19T05:23:08.272Z,4.10
2023-03-19T05:25:47.912Z,4.10
2023-03-19T05:28:23.532Z,4.40
2023-03-19T05:30:55.620Z,3.80
2023-03-19T05:33:41.902Z,4.20
2023-03-19T05:36:14.385Z,4.00
2023-03-19T05:39:10.874Z,3.80
2023-03-19T05:41:43.606Z,4.10
2023-03-19T05:44:15.825Z,3.90
2023-03-19T05:47:04.343Z,4.10
2023-03-19T05:49:38.313Z,4.50
2023-03-19T05:52:11.293Z,4.20
2023-03-19T05:54:43.663Z,4.30
2023-03-19T05:57:25.243Z,4.70
2023-03-19T06:00:06.648Z,4.20
2023-03-19T06:02:38.650Z,4.50
2023-03-19T06:05:37.255Z,4.00
2023-03-19T06:08:16.311Z,4.80
2023-03-19T06:11:05.138Z,4.80
2023-03-19T06:13:38.761Z,5.10
2023-03-19T06:16:13.968Z,4.50
2023-03-19T06:18:52.570Z,4.10
2023-03-19T06:21:25.965Z,4.40
2023-03-19T06:23:58.265Z,4.90
2023-03-19T06:26:35.452Z,4.10
2023-03-19T06:29:10.752Z,4.70
2023-03-19T06:31:43.134Z,4.50
2023-03-19T06:34:29.101Z,4.90
2023-03-19T06:37:01.088Z,3.50
2023-03-19T06:39:33.317Z,4.90
2023-03-19T06:42:05.396Z,4.90
2023-03-19T06:44:37.754Z,4.70
2023-03-19T06:47:10.175Z,5.30
2023-03-19T06:49:44.273Z,4.90
2023-03-19T06:52:16.401Z,4.30
2023-03-19T06:54:48.329Z,3.80
2023-03-19T06:57:20.316Z,4.30
2023-03-19T06:59:52.461Z,4.30
2023-03-19T07:02:24.338Z,4.20
2023-03-19T07:04:56.488Z,4.30
2023-03-19T07:07:28.370Z,4.50
2023-03-19T07:10:00.438Z,5.10
2023-03-19T07:12:32.359Z,5.60
2023-03-19T07:15:04.878Z,4.60
2023-03-19T07:17:37.035Z,5.00
2023-03-19T07:20:10.381Z,4.20
2023-03-19T07:22:42.405Z,4.80
2023-03-19T07:25:14.444Z,5.00
2023-03-19T07:27:47.208Z,4.10
2023-03-19T07:30:19.564Z,5.20
2023-03-19T07:32:51.584Z,4.90
2023-03-19T07:35:23.529Z,3.80
2023-03-19T07:37:55.608Z,5.00
2023-03-19T07:40:27.893Z,5.10
2023-03-19T07:42:59.999Z,5.10
2023-03-19T07:45:32.568Z,4.90
2023-03-19T07:48:04.530Z,4.70
2023-03-19T07:50:36.888Z,5.00
2023-03-19T07:53:08.866Z,5.00
2023-03-19T07:55:40.845Z,5.40
2023-03-19T07:58:12.836Z,4.60
2023-03-19T08:00:45.222Z,4.80
2023-03-19T08:03:17.248Z,4.60
2023-03-19T08:05:51.428Z,6.20
2023-03-19T08:08:23.300Z,4.70
2023-03-19T08:10:57.701Z,5.40
2023-03-19T08:16:00.110Z,4.50
2023-03-19T08:18:32.490Z,4.20
2023-03-19T08:21:04.419Z,4.60
2023-03-19T08:23:36.529Z,4.20
2023-03-19T08:26:08.625Z,4.30
2023-03-19T08:28:40.537Z,5.00
2023-03-19T08:31:14.218Z,4.70
2023-03-19T08:33:46.216Z,5.10
2023-03-19T08:36:18.116Z,4.50
2023-03-19T08:38:54.750Z,4.60
2023-03-19T08:41:26.777Z,4.50
2023-03-19T08:43:58.597Z,4.50
2023-03-19T08:46:30.684Z,4.20
2023-03-19T08:49:02.573Z,4.40
2023-03-19T08:51:34.438Z,4.10
2023-03-19T08:54:06.558Z,3.50
2023-03-19T08:56:38.489Z,4.00
2023-03-19T08:59:10.653Z,3.30
2023-03-19T09:01:42.583Z,4.00
2023-03-19T09:04:14.558Z,3.50
2023-03-19T09:06:46.505Z,3.60
2023-03-19T09:09:18.319Z,4.10
2023-03-19T09:11:50.393Z,3.80
2023-03-19T09:14:23.215Z,3.80
2023-03-19T09:16:55.817Z,3.70
2023-03-19T09:19:27.826Z,3.80
2023-03-19T09:21:59.698Z,3.90
2023-03-19T09:24:31.867Z,4.00
2023-03-19T09:27:03.948Z,4.30
2023-03-19T09:29:36.164Z,3.90
2023-03-19T09:32:08.387Z,4.00
2023-03-19T09:34:40.873Z,4.50
2023-03-19T09:37:13.007Z,4.00
2023-03-19T09:39:44.890Z,3.70
2023-03-19T09:42:33.016Z,4.40
2023-03-19T09:45:05.400Z,3.80
2023-03-19T09:47:39.686Z,4.20
2023-03-19T09:52:48.188Z,3.80
2023-03-19T09:55:32.569Z,3.70
2023-03-19T09:58:06.786Z,3.60
2023-03-19T10:03:21.582Z,3.50
2023-03-19T10:05:57.184Z,3.10
2023-03-19T10:08:45.618Z,3.30
2023-03-19T10:11:30.850Z,3.80
2023-03-19T10:14:13.450Z,3.60
2023-03-19T10:16:48.484Z,2.90
2023-03-19T10:19:26.514Z,3.30
2023-03-19T10:22:00.833Z,3.20
2023-03-19T10:24:37.228Z,3.30
2023-03-19T10:27:14.762Z,3.40
2023-03-19T10:29:46.667Z,2.70
2023-03-19T10:32:21.391Z,2.60
2023-03-19T10:34:54.277Z,3.00
2023-03-19T10:37:28.318Z,3.50
2023-03-19T10:40:02.011Z,3.50
2023-03-19T10:42:42.540Z,2.70
2023-03-19T10:45:22.692Z,3.20
2023-03-19T10:47:56.122Z,3.70
2023-03-19T10:50:33.159Z,3.20
2023-03-19T10:53:09.367Z,2.90
2023-03-19T10:55:41.356Z,3.30
2023-03-19T10:58:24.165Z,3.60
2023-03-19T11:01:00.862Z,3.00
2023-03-19T11:03:36.083Z,3.10
2023-03-19T11:06:19.148Z,3.80
2023-03-19T11:08:58.858Z,3.20
2023-03-19T11:11:36.908Z,3.20
2023-03-19T11:14:16.050Z,3.70
2023-03-19T11:16:58.644Z,3.30
2023-03-19T11:19:34.417Z,3.20
2023-03-19T11:22:14.910Z,3.00
2023-03-19T11:24:53.085Z,2.90
2023-03-19T11:27:31.986Z,3.20
2023-03-19T11:30:05.271Z,2.80
2023-03-19T11:33:00.862Z,3.30
2023-03-19T11:35:36.012Z,4.50
2023-03-19T11:38:13.297Z,3.60
2023-03-19T11:40:48.206Z,3.50
2023-03-19T11:43:40.811Z,3.20
2023-03-19T11:46:19.866Z,3.10
2023-03-19T11:49:15.859Z,3.30
2023-03-19T11:51:57.004Z,3.00
2023-03-19T11:54:33.691Z,3.20
2023-03-19T11:57:09.922Z,2.90
2023-03-19T11:59:49.528Z,3.00
2023-03-19T12:02:51.579Z,3.10
2023-03-19T12:05:33.737Z,2.50
2023-03-19T12:08:16.927Z,3.20
2023-03-19T12:10:57.487Z,2.90
2023-03-19T12:13:38.904Z,3.00
2023-03-19T12:16:19.390Z,2.80
2023-03-19T12:19:12.071Z,3.00
2023-03-19T12:21:53.927Z,2.60
2023-03-19T12:24:32.402Z,2.50
2023-03-19T12:27:08.740Z,2.70
2023-03-19T12:29:46.713Z,2.70
2023-03-19T12:32:30.409Z,2.70
2023-03-19T12:35:05.868Z,2.50
2023-03-19T12:37:39.883Z,2.60
2023-03-19T12:40:18.565Z,2.80
2023-03-19T12:42:50.458Z,2.60
2023-03-19T12:45:30.572Z,3.00
2023-03-19T12:48:06.377Z,2.60
2023-03-19T12:50:40.896Z,2.50
2023-03-19T12:53:19.306Z,2.80
2023-03-19T12:55:54.813Z,2.50
2023-03-19T12:58:31.392Z,2.90
2023-03-19T13:01:09.021Z,2.80
2023-03-19T13:03:46.115Z,2.70
2023-03-19T13:06:23.051Z,2.50
2023-03-19T13:08:58.678Z,2.50
2023-03-19T13:11:39.676Z,2.70
2023-03-19T13:14:19.458Z,2.40
2023-03-19T13:16:56.604Z,2.80
2023-03-19T13:19:33.643Z,2.50
2023-03-19T13:22:07.795Z,2.40
2023-03-19T13:27:15.024Z,3.00
2023-03-19T13:30:04.076Z,2.20
2023-03-19T13:32:41.382Z,2.70
2023-03-19T13:35:29.993Z,2.90
2023-03-19T13:38:02.734Z,3.10
2023-03-19T13:40:46.482Z,2.80
2023-03-19T13:43:39.232Z,3.10
2023-03-19T13:46:40.730Z,3.00
2023-03-19T13:49:26.581Z,3.20
2023-03-19T13:52:01.493Z,3.80
2023-03-19T13:54:38.972Z,2.80
2023-03-19T13:57:22.715Z,2.60
2023-03-19T13:59:54.599Z,2.60
2023-03-19T14:02:47.618Z,2.80
2023-03-19T14:05:23.142Z,2.90
2023-03-19T14:07:58.263Z,3.00
2023-03-19T14:10:31.681Z,2.20
2023-03-19T14:13:08.541Z,2.70
2023-03-19T14:15:49.246Z,2.40
2023-03-19T14:18:24.707Z,2.90
2023-03-19T14:21:06.483Z,2.50
2023-03-19T14:23:44.156Z,2.70
2023-03-19T14:26:20.712Z,2.80
2023-03-19T14:28:58.197Z,2.70
2023-03-19T14:31:36.557Z,2.70
2023-03-19T14:34:26.640Z,2.50
2023-03-19T14:37:05.225Z,2.40
2023-03-19T14:39:41.241Z,2.20
2023-03-19T14:42:20.072Z,2.40
2023-03-19T14:45:18.192Z,2.30
2023-03-19T14:48:10.390Z,2.40
2023-03-19T14:51:05.758Z,2.60
2023-03-19T14:53:42.137Z,2.50
2023-03-19T14:56:16.965Z,2.60
2023-03-19T14:58:54.012Z,2.50
2023-03-19T15:01:28.044Z,2.40
2023-03-19T15:06:37.190Z,2.30
2023-03-19T15:09:15.498Z,2.40
2023-03-19T15:12:01.637Z,2.30
2023-03-19T15:14:43.241Z,2.50
2023-03-19T15:17:20.755Z,2.30
2023-03-19T15:19:52.812Z,2.30
2023-03-19T15:22:31.305Z,2.40
2023-03-19T15:25:10.229Z,2.10
2023-03-19T15:27:42.989Z,9.30
2023-03-19T15:30:28.812Z,3.40
2023-03-19T15:33:13.989Z,2.40
2023-03-19T15:35:53.386Z,3.00
2023-03-19T15:38:25.689Z,2.10
2023-03-19T15:40:57.785Z,2.60
2023-03-19T15:43:30.185Z,2.10
2023-03-19T15:46:02.065Z,2.20
2023-03-19T15:48:39.149Z,2.30
2023-03-19T15:51:11.739Z,2.20
2023-03-19T15:53:44.026Z,2.30
2023-03-19T15:56:17.729Z,2.20
2023-03-19T15:58:53.163Z,2.40
2023-03-19T16:01:25.474Z,2.50
2023-03-19T16:04:01.832Z,2.30
2023-03-19T16:06:36.929Z,2.70
2023-03-19T16:09:20.985Z,2.70
2023-03-19T16:11:53.081Z,2.30
2023-03-19T16:14:29.372Z,2.50
2023-03-19T16:17:04.866Z,2.80
2023-03-19T16:19:38.589Z,2.20
2023-03-19T16:22:16.390Z,2.30
2023-03-19T16:24:49.376Z,2.30
2023-03-19T16:27:22.996Z,2.40
2023-03-19T16:30:00.598Z,2.20
2023-03-19T16:32:33.647Z,2.90
2023-03-19T16:35:12.293Z,2.50
2023-03-19T16:37:46.786Z,2.10
2023-03-19T16:40:42.214Z,2.80
2023-03-19T16:43:21.993Z,2.60
2023-03-19T16:46:05.543Z,2.80
2023-03-19T16:48:37.438Z,2.50
2023-03-19T16:51:17.991Z,2.50
2023-03-19T16:53:51.325Z,2.20
2023-03-19T16:56:23.178Z,2.50
2023-03-19T16:58:55.436Z,2.10
2023-03-19T17:01:28.332Z,2.60
2023-03-19T17:04:00.298Z,3.40
2023-03-19T17:06:34.478Z,3.70
2023-03-19T17:09:07.112Z,3.80
2023-03-19T17:11:40.886Z,2.80
2023-03-19T17:14:16.802Z,3.00
2023-03-19T17:16:50.836Z,3.10
2023-03-19T17:19:24.493Z,2.90
2023-03-19T17:21:58.746Z,2.80
2023-03-19T17:24:32.255Z,3.10
2023-03-19T17:27:05.248Z,2.90
2023-03-19T17:29:37.135Z,2.60
2023-03-19T17:32:14.544Z,3.30
2023-03-19T17:34:46.403Z,9.30
2023-03-19T17:37:18.313Z,3.20
2023-03-19T17:39:50.825Z,3.50
2023-03-19T17:42:24.582Z,3.20
2023-03-19T17:44:58.965Z,3.10
2023-03-19T17:50:01.339Z,3.80
2023-03-19T17:52:35.431Z,3.10
2023-03-19T17:55:17.151Z,3.40
2023-03-19T17:57:51.191Z,4.20
2023-03-19T18:00:25.431Z,4.30
2023-03-19T18:02:57.950Z,5.10
2023-03-19T18:05:29.828Z,4.40
2023-03-19T18:08:01.594Z,4.20
2023-03-19T18:10:35.949Z,4.40
2023-03-19T18:13:55.116Z,3.90
2023-03-19T18:16:29.131Z,4.40
2023-03-19T18:19:02.882Z,4.40
2023-03-19T18:21:34.826Z,4.60
2023-03-19T18:24:07.464Z,4.70
2023-03-19T18:26:39.392Z,4.10
2023-03-19T18:29:11.293Z,4.30
2023-03-19T18:31:44.870Z,4.20
2023-03-19T18:34:18.138Z,4.40
2023-03-19T18:36:50.284Z,4.50
2023-03-19T18:39:22.125Z,5.00
2023-03-19T18:41:54.252Z,5.00
2023-03-19T18:44:26.100Z,5.20
2023-03-19T18:46:58.060Z,5.30
2023-03-19T18:49:30.088Z,6.00
2023-03-19T18:52:03.677Z,5.50
2023-03-19T18:54:35.744Z,5.80
2023-03-19T18:57:11.084Z,6.70
2023-03-19T18:59:43.086Z,5.80
2023-03-19T19:02:25.141Z,6.10
2023-03-19T19:04:57.086Z,6.30
2023-03-19T19:07:29.091Z,5.90
2023-03-19T19:10:01.057Z,6.90
2023-03-19T19:12:33.014Z,6.70
2023-03-19T19:15:06.574Z,7.50
2023-03-19T19:17:39.213Z,7.70
2023-03-19T19:20:15.601Z,7.80
2023-03-19T19:22:47.794Z,7.50
2023-03-19T19:25:21.363Z,7.40
2023-03-19T19:27:57.133Z,7.80
2023-03-19T19:30:29.482Z,7.70
2023-03-19T19:33:03.033Z,8.50
2023-03-19T19:35:34.946Z,8.60
2023-03-19T19:38:07.070Z,8.20
2023-03-19T19:40:39.237Z,7.90
2023-03-19T19:43:14.714Z,8.20
2023-03-19T19:45:47.552Z,7.20
2023-03-19T19:48:21.984Z,8.10
2023-03-19T19:50:55.174Z,7.90
2023-03-19T19:53:29.558Z,8.40
2023-03-19T19:56:01.492Z,10.40
2023-03-19T19:58:34.188Z,8.70
2023-03-19T20:01:07.740Z,8.80
2023-03-19T20:03:39.602Z,10.60
2023-03-19T20:06:11.606Z,10.20
2023-03-19T20:08:43.939Z,10.50
2023-03-19T20:11:19.397Z,9.10
2023-03-19T20:13:55.602Z,11.70
2023-03-19T20:16:28.335Z,11.60
2023-03-19T20:19:00.576Z,11.70
2023-03-19T20:21:32.506Z,12.70
2023-03-19T20:24:04.474Z,12.60
2023-03-19T20:26:36.781Z,12.80
2023-03-19T20:29:08.684Z,14.20
2023-03-19T20:31:40.570Z,14.90
2023-03-19T20:34:22.577Z,16.10
2023-03-19T20:37:00.956Z,17.00
2023-03-19T20:39:32.892Z,16.90
2023-03-19T20:42:04.916Z,17.90
2023-03-19T20:44:36.793Z,16.80
2023-03-19T20:47:17.592Z,16.20
2023-03-19T20:49:49.825Z,16.50
2023-03-19T20:52:21.684Z,16.70
2023-03-19T20:54:54.119Z,16.80
2023-03-19T20:57:29.253Z,14.70
2023-03-19T21:00:03.280Z,14.20
2023-03-19T21:02:35.239Z,13.10
2023-03-19T21:05:08.355Z,13.30
2023-03-19T21:07:40.337Z,13.90
2023-03-19T21:10:23.557Z,13.00
2023-03-19T21:12:55.554Z,80.30
2023-03-19T21:15:27.771Z,15.30
2023-03-19T21:18:00.071Z,13.10
2023-03-19T21:20:33.480Z,12.90
2023-03-19T21:23:13.717Z,13.90
2023-03-19T21:25:46.395Z,13.10
2023-03-19T21:28:23.588Z,12.80
2023-03-19T21:30:56.320Z,13.10
2023-03-19T21:33:29.292Z,13.40
2023-03-19T21:36:02.553Z,13.90
2023-03-19T21:38:34.457Z,13.70
2023-03-19T21:41:08.010Z,12.40
2023-03-19T21:43:44.135Z,16.30
2023-03-19T21:46:24.475Z,14.40
2023-03-19T21:51:28.593Z,16.00
2023-03-19T21:54:00.487Z,14.80
2023-03-19T21:56:33.914Z,13.00
2023-03-19T21:59:08.418Z,13.30
2023-03-19T22:01:40.675Z,12.40
2023-03-19T22:04:12.655Z,10.80
2023-03-19T22:06:44.542Z,10.90
2023-03-19T22:09:16.485Z,11.50
2023-03-19T22:11:48.318Z,13.70
2023-03-19T22:14:21.613Z,14.40
2023-03-19T22:16:55.550Z,13.80
2023-03-19T22:19:27.582Z,13.70
2023-03-19T22:21:59.691Z,13.50
2023-03-19T22:24:31.574Z,14.70
2023-03-19T22:27:03.592Z,13.30
2023-03-19T22:29:35.500Z,14.60
2023-03-19T22:32:10.801Z,15.00
2023-03-19T22:34:42.729Z,13.80
2023-03-19T22:37:27.089Z,14.20
2023-03-19T22:39:58.958Z,15.30
2023-03-19T22:42:30.942Z,15.00
2023-03-19T22:45:02.835Z,15.30
2023-03-19T22:47:35.304Z,16.40
2023-03-19T22:50:10.740Z,13.40
2023-03-19T22:52:42.678Z,14.40
2023-03-19T22:55:14.792Z,14.30
2023-03-19T22:57:46.885Z,15.40
2023-03-19T23:00:23.626Z,13.80
2023-03-19T23:03:00.812Z,14.20
2023-03-19T23:05:35.951Z,13.30
2023-03-19T23:08:08.562Z,15.30
2023-03-19T23:10:40.931Z,14.90
2023-03-19T23:13:13.907Z,14.10
2023-03-19T23:15:46.481Z,13.90
2023-03-19T23:18:21.510Z,13.80
2023-03-19T23:20:53.710Z,12.50
2023-03-19T23:23:25.858Z,11.40
2023-03-19T23:25:58.350Z,12.60
2023-03-19T23:28:33.878Z,12.60
2023-03-19T23:31:06.792Z,10.30
2023-03-19T23:33:38.707Z,10.90
2023-03-19T23:36:12.288Z,10.00
2023-03-19T23:38:44.757Z,9.00
2023-03-19T23:41:23.945Z,11.00
2023-03-19T23:43:56.189Z,11.50
2023-03-19T23:46:28.148Z,12.10
2023-03-19T23:49:00.226Z,10.60
2023-03-19T23:51:32.204Z,10.60
2023-03-19T23:54:04.087Z,11.20
2023-03-19T23:56:36.291Z,10.80
2023-03-19T23:59:09.888Z,10.40
